(°C)
13°
13°
12°
11°
10°
(°C)
W
W
W
WNW
WNW
WNW
NW
(km/h)
19-29
20-28
21-28
21-29
20-29
19-30
18-27
(mm)
0
0
0
0
0
0
0
(%)
1
1
0
0
0
0
0

Sonnenhöhe

/ 31.8°
sun-icon
UV 1
06:12
18:56
Zunehmender Mond (124°)
17:38
24:00

METAR für 53.5°N 50.15°O (UWWW)

Zeit Bedingungen Temperatur/
Taupunkt
Wind Sichtweite Wetter Wolken Druck Änderung Roh
VFR 13°C / 1°C 290º variable 260º to 320º 10kt >10km - Few Clouds 3300ft 1010 No Significant change UWWW 161030Z 29005MPS 260V320 9999 FEW033 13/01 Q1010 R33/CLRD60 NOSIG RMK QFE747/0996
VFR 12°C / 1°C 300º variable 260º to 340º 10kt >10km - Scattered Clouds 3300ft 1010 No Significant change UWWW 161000Z 30005MPS 260V340 9999 SCT033 12/01 Q1010 R33/CLRD60 NOSIG RMK QFE747/0996
VFR 12°C / 2°C 300º variable 260º to 330º 10kt >10km - Broken Clouds 3700ft 1010 No Significant change UWWW 160930Z 30005MPS 260V330 9999 BKN037 12/02 Q1010 R33/CLRD60 NOSIG RMK QFE747/0996
VFR 12°C / 2°C 300º variable 270º to 340º 10kt Gust 19kt >10km - Scattered Clouds 3300ft 1010 No Significant change UWWW 160900Z 30005G10MPS 270V340 9999 SCT033 12/02 Q1010 R33/CLRD60 NOSIG RMK QFE747/0996
VFR 12°C / 2°C 310º variable 250º to 340º 12kt >10km - Scattered Clouds 3300ft 1010 No Significant change UWWW 160830Z 31006MPS 250V340 9999 SCT033 12/02 Q1010 R33/CLRD60 NOSIG RMK QFE747/0996
VFR 11°C / 2°C 310º 14kt >10km - Scattered Clouds 3300ft 1010 No Significant change UWWW 160800Z 31007MPS 9999 SCT033 11/02 Q1010 R33/CLRD60 NOSIG RMK QFE747/0996
VFR 11°C / 2°C 310º 12kt >10km - Scattered Clouds 2600ft 1010 No Significant change UWWW 160730Z 31006MPS 9999 SCT026 11/02 Q1010 R33/CLRD60 NOSIG RMK QFE747/0996
VFR 11°C / 3°C 300º variable 280º to 340º 10kt >10km - Scattered Clouds 2600ft 1010 No Significant change UWWW 160700Z 30005MPS 280V340 9999 SCT026 11/03 Q1010 R33/CLRD60 NOSIG RMK QFE746/0995
VFR 11°C / 3°C 280º variable 230º to 310º 8kt >10km - Scattered Clouds 2600ft 1010 No Significant change UWWW 160630Z 28004MPS 230V310 9999 SCT026 11/03 Q1010 R33/CLRD60 NOSIG RMK QFE746/0995
MVFR 11°C / 3°C 290º variable 250º to 320º 12kt >10km - Broken Clouds 2600ft 1009 No Significant change UWWW 160600Z 29006MPS 250V320 9999 BKN026 11/03 Q1009 R33/CLRD60 NOSIG RMK QFE746/0995
VFR 10°C / 3°C 300º 10kt >10km - Clouds and Visibility OK 1010 No Significant change UWWW 160530Z 30005MPS CAVOK 10/03 Q1010 R33/CLRD60 NOSIG RMK QFE746/0995
VFR 9°C / 3°C 300º variable 260º to 320º 8kt >10km - Scattered Clouds 3300ft 1009 No Significant change UWWW 160500Z 30004MPS 260V320 9999 SCT033 09/03 Q1009 R33/CLRD60 NOSIG RMK QFE746/0995
VFR 9°C / 3°C 280º variable 240º to 330º 6kt >10km - Scattered Clouds 3300ft 1010 No Significant change UWWW 160430Z 28003MPS 240V330 9999 SCT033 09/03 Q1010 R33/CLRD60 NOSIG RMK QFE746/0995
VFR 8°C / 3°C 300º 6kt >10km - Scattered Clouds 3300ft 1009 No Significant change UWWW 160400Z 30003MPS 9999 SCT033 08/03 Q1009 R33/CLRD60 NOSIG RMK QFE746/0995
VFR 8°C / 3°C 300º variable 260º to 320º 4kt >10km - Scattered Clouds 3300ft 1009 No Significant change UWWW 160330Z 30002MPS 260V320 9999 SCT033 08/03 Q1009 R33/CLRD60 NOSIG RMK QFE746/0995
VFR 7°C / 3°C 280º variable 250º to 320º 4kt >10km - Scattered Clouds 3300ft 1009 No Significant change UWWW 160300Z 28002MPS 250V320 9999 SCT033 07/03 Q1009 R33/CLRD60 NOSIG RMK QFE746/0995
VFR 6°C / 3°C 270º 6kt >10km - Clouds and Visibility OK 1009 No Significant change UWWW 160230Z 27003MPS CAVOK 06/03 Q1009 R33/CLRD60 NOSIG RMK QFE746/0995
VFR 7°C / 3°C 270º variable 240º to 300º 6kt >10km - Clouds and Visibility OK 1009 No Significant change UWWW 160200Z 27003MPS 240V300 CAVOK 07/03 Q1009 R33/CLRD60 NOSIG RMK QFE746/0995
VFR 7°C / 3°C 270º 6kt >10km - Clouds and Visibility OK 1008 No Significant change UWWW 160130Z 27003MPS CAVOK 07/03 Q1008 R33/CLRD60 NOSIG RMK QFE746/0994
VFR 6°C / 4°C 270º variable 240º to 300º 4kt >10km - Clouds and Visibility OK 1008 No Significant change UWWW 160100Z 27002MPS 240V300 CAVOK 06/04 Q1008 R33/CLRD60 NOSIG RMK QFE746/0994
VFR 6°C / 4°C 250º 6kt >10km - Clouds and Visibility OK 1008 No Significant change UWWW 160030Z 25003MPS CAVOK 06/04 Q1008 R33/CLRD60 NOSIG RMK QFE745/0994
VFR 6°C / 3°C 300º 4kt >10km - Clouds and Visibility OK 1008 No Significant change UWWW 160000Z 30002MPS CAVOK 06/03 Q1008 R33/CLRD60 NOSIG RMK QFE745/0994
VFR 7°C / 3°C 310º 4kt >10km - Clouds and Visibility OK 1008 No Significant change UWWW 152330Z 31002MPS CAVOK 07/03 Q1008 R33/CLRD60 NOSIG RMK QFE746/0994
VFR 7°C / 3°C 290º 6kt >10km - Clouds and Visibility OK 1009 No Significant change UWWW 152300Z 29003MPS CAVOK 07/03 Q1009 R33/CLRD60 NOSIG RMK QFE746/0995

VFR

13°C / 1°C

[Mehr]
Wind 290º variable 260º to 320º 10kt
Sichtweite >10km
Wetter -
Wolken Few Clouds 3300ft
Druck 1010
Änderung No Significant change
Roh UWWW 161030Z 29005MPS 260V320 9999 FEW033 13/01 Q1010 R33/CLRD60 NOSIG RMK QFE747/0996

VFR

12°C / 1°C

[Mehr]
Wind 300º variable 260º to 340º 10kt
Sichtweite >10km
Wetter -
Wolken Scattered Clouds 3300ft
Druck 1010
Änderung No Significant change
Roh UWWW 161000Z 30005MPS 260V340 9999 SCT033 12/01 Q1010 R33/CLRD60 NOSIG RMK QFE747/0996

VFR

12°C / 2°C

[Mehr]
Wind 300º variable 260º to 330º 10kt
Sichtweite >10km
Wetter -
Wolken Broken Clouds 3700ft
Druck 1010
Änderung No Significant change
Roh UWWW 160930Z 30005MPS 260V330 9999 BKN037 12/02 Q1010 R33/CLRD60 NOSIG RMK QFE747/0996

VFR

12°C / 2°C

[Mehr]
Wind 300º variable 270º to 340º 10kt Gust 19kt
Sichtweite >10km
Wetter -
Wolken Scattered Clouds 3300ft
Druck 1010
Änderung No Significant change
Roh UWWW 160900Z 30005G10MPS 270V340 9999 SCT033 12/02 Q1010 R33/CLRD60 NOSIG RMK QFE747/0996

VFR

12°C / 2°C

[Mehr]
Wind 310º variable 250º to 340º 12kt
Sichtweite >10km
Wetter -
Wolken Scattered Clouds 3300ft
Druck 1010
Änderung No Significant change
Roh UWWW 160830Z 31006MPS 250V340 9999 SCT033 12/02 Q1010 R33/CLRD60 NOSIG RMK QFE747/0996

VFR

11°C / 2°C

[Mehr]
Wind 310º 14kt
Sichtweite >10km
Wetter -
Wolken Scattered Clouds 3300ft
Druck 1010
Änderung No Significant change
Roh UWWW 160800Z 31007MPS 9999 SCT033 11/02 Q1010 R33/CLRD60 NOSIG RMK QFE747/0996

VFR

11°C / 2°C

[Mehr]
Wind 310º 12kt
Sichtweite >10km
Wetter -
Wolken Scattered Clouds 2600ft
Druck 1010
Änderung No Significant change
Roh UWWW 160730Z 31006MPS 9999 SCT026 11/02 Q1010 R33/CLRD60 NOSIG RMK QFE747/0996

VFR

11°C / 3°C

[Mehr]
Wind 300º variable 280º to 340º 10kt
Sichtweite >10km
Wetter -
Wolken Scattered Clouds 2600ft
Druck 1010
Änderung No Significant change
Roh UWWW 160700Z 30005MPS 280V340 9999 SCT026 11/03 Q1010 R33/CLRD60 NOSIG RMK QFE746/0995

VFR

11°C / 3°C

[Mehr]
Wind 280º variable 230º to 310º 8kt
Sichtweite >10km
Wetter -
Wolken Scattered Clouds 2600ft
Druck 1010
Änderung No Significant change
Roh UWWW 160630Z 28004MPS 230V310 9999 SCT026 11/03 Q1010 R33/CLRD60 NOSIG RMK QFE746/0995

MVFR

11°C / 3°C

[Mehr]
Wind 290º variable 250º to 320º 12kt
Sichtweite >10km
Wetter -
Wolken Broken Clouds 2600ft
Druck 1009
Änderung No Significant change
Roh UWWW 160600Z 29006MPS 250V320 9999 BKN026 11/03 Q1009 R33/CLRD60 NOSIG RMK QFE746/0995

VFR

10°C / 3°C

[Mehr]
Wind 300º 10kt
Sichtweite >10km
Wetter -
Wolken Clouds and Visibility OK
Druck 1010
Änderung No Significant change
Roh UWWW 160530Z 30005MPS CAVOK 10/03 Q1010 R33/CLRD60 NOSIG RMK QFE746/0995

VFR

9°C / 3°C

[Mehr]
Wind 300º variable 260º to 320º 8kt
Sichtweite >10km
Wetter -
Wolken Scattered Clouds 3300ft
Druck 1009
Änderung No Significant change
Roh UWWW 160500Z 30004MPS 260V320 9999 SCT033 09/03 Q1009 R33/CLRD60 NOSIG RMK QFE746/0995

VFR

9°C / 3°C

[Mehr]
Wind 280º variable 240º to 330º 6kt
Sichtweite >10km
Wetter -
Wolken Scattered Clouds 3300ft
Druck 1010
Änderung No Significant change
Roh UWWW 160430Z 28003MPS 240V330 9999 SCT033 09/03 Q1010 R33/CLRD60 NOSIG RMK QFE746/0995

VFR

8°C / 3°C

[Mehr]
Wind 300º 6kt
Sichtweite >10km
Wetter -
Wolken Scattered Clouds 3300ft
Druck 1009
Änderung No Significant change
Roh UWWW 160400Z 30003MPS 9999 SCT033 08/03 Q1009 R33/CLRD60 NOSIG RMK QFE746/0995

VFR

8°C / 3°C

[Mehr]
Wind 300º variable 260º to 320º 4kt
Sichtweite >10km
Wetter -
Wolken Scattered Clouds 3300ft
Druck 1009
Änderung No Significant change
Roh UWWW 160330Z 30002MPS 260V320 9999 SCT033 08/03 Q1009 R33/CLRD60 NOSIG RMK QFE746/0995

VFR

7°C / 3°C

[Mehr]
Wind 280º variable 250º to 320º 4kt
Sichtweite >10km
Wetter -
Wolken Scattered Clouds 3300ft
Druck 1009
Änderung No Significant change
Roh UWWW 160300Z 28002MPS 250V320 9999 SCT033 07/03 Q1009 R33/CLRD60 NOSIG RMK QFE746/0995

VFR

6°C / 3°C

[Mehr]
Wind 270º 6kt
Sichtweite >10km
Wetter -
Wolken Clouds and Visibility OK
Druck 1009
Änderung No Significant change
Roh UWWW 160230Z 27003MPS CAVOK 06/03 Q1009 R33/CLRD60 NOSIG RMK QFE746/0995

VFR

7°C / 3°C

[Mehr]
Wind 270º variable 240º to 300º 6kt
Sichtweite >10km
Wetter -
Wolken Clouds and Visibility OK
Druck 1009
Änderung No Significant change
Roh UWWW 160200Z 27003MPS 240V300 CAVOK 07/03 Q1009 R33/CLRD60 NOSIG RMK QFE746/0995

VFR

7°C / 3°C

[Mehr]
Wind 270º 6kt
Sichtweite >10km
Wetter -
Wolken Clouds and Visibility OK
Druck 1008
Änderung No Significant change
Roh UWWW 160130Z 27003MPS CAVOK 07/03 Q1008 R33/CLRD60 NOSIG RMK QFE746/0994

VFR

6°C / 4°C

[Mehr]
Wind 270º variable 240º to 300º 4kt
Sichtweite >10km
Wetter -
Wolken Clouds and Visibility OK
Druck 1008
Änderung No Significant change
Roh UWWW 160100Z 27002MPS 240V300 CAVOK 06/04 Q1008 R33/CLRD60 NOSIG RMK QFE746/0994

VFR

6°C / 4°C

[Mehr]
Wind 250º 6kt
Sichtweite >10km
Wetter -
Wolken Clouds and Visibility OK
Druck 1008
Änderung No Significant change
Roh UWWW 160030Z 25003MPS CAVOK 06/04 Q1008 R33/CLRD60 NOSIG RMK QFE745/0994

VFR

6°C / 3°C

[Mehr]
Wind 300º 4kt
Sichtweite >10km
Wetter -
Wolken Clouds and Visibility OK
Druck 1008
Änderung No Significant change
Roh UWWW 160000Z 30002MPS CAVOK 06/03 Q1008 R33/CLRD60 NOSIG RMK QFE745/0994

VFR

7°C / 3°C

[Mehr]
Wind 310º 4kt
Sichtweite >10km
Wetter -
Wolken Clouds and Visibility OK
Druck 1008
Änderung No Significant change
Roh UWWW 152330Z 31002MPS CAVOK 07/03 Q1008 R33/CLRD60 NOSIG RMK QFE746/0994

VFR

7°C / 3°C

[Mehr]
Wind 290º 6kt
Sichtweite >10km
Wetter -
Wolken Clouds and Visibility OK
Druck 1009
Änderung No Significant change
Roh UWWW 152300Z 29003MPS CAVOK 07/03 Q1009 R33/CLRD60 NOSIG RMK QFE746/0995

TAF für 53.5°N 50.15°O (UWWW)

From till


Maximum Temperature 13ºC on . Minimum Temperature 5ºC on .
From till Wind 300º 12kt. Gust 21kt. Visibility 10km or more. Broken Clouds 2000ft.
Temporarly from till Wind 340º 16kt. Gust 27kt. Light Showers Rain . Broken Clouds 1100ft.

Roh: TAF UWWW 160754Z 1609/1709 30006G11MPS 9999 BKN020 TX13/1611Z TN05/1701Z TEMPO 1609/1616 34008G14MPS -SHRA BKN011CB

Aktuelle Satelliten- und Regenbilder für 53.5°N 50.15°O

Die Standortmarkierung ist platziert auf 53.5°N 50.15°O. [Mehr]

Das Echtzeit-Satellitenbild kombiniert sichtbares Licht während des Tages mit Infrarotstrahlung während der Nacht. Nachts ist das Bild nicht dunkel, da Infrarotstrahlung Temperaturunterschiede erkennen kann. Leider sind niedrige Wolken und Nebel nur schwer von den Bodentemperaturen zu unterscheiden und können daher nachts fast unsichtbar sein. Meteosat-Satellitenbilder für Europa werden alle 5 Minuten in Echtzeit aktualisiert. Die Bilder GOES-16 / GOES-17 (Nord- und Südamerika) und Himawari (Asien) werden alle 10 Minuten aktualisiert.

Copyright 2021 EUMETSAT / meteoblue. / Copyright 2021 meteoblue

Radar- und Niederschlags-Nowcast für 53.5°N 50.15°O

Nieselregen
Leicht
Moderat
Stark
Sehr stark
Hagel

Die Ortsmarkierung zeigt auf 53.5°N 50.15°O. Diese Animation zeigt das Niederschlagsradar der letzten Stunde, sowie eine 1h Vorhersage. Nieselregen und leichter Schneefall können für das Radar unsichtbar sein. Die Niederschlagsintensität ist farbcodiert von Hellblau bis Orange.